Huvudsida
METAR-TAF:

METAR-TAF

Flygplatser :

Guilin Liangjiang International Airport

Guilin, Kina

latitud: 25-20N, longitud: 110-18E, höjd: 166 m

Aktuellt väderrapport

Denna rapport gjordes för 45 minuter sedan, klockan 20:00 UTC
Vind 4 kt från väst/nordväst
Temperatur 24°C
Fuktighet 94%
Tryck 1002 hPa
Sikt: 7000 m
Få moln på en höjd av 5000 ft

METAR: ZGKL 172000Z 30002MPS 7000 FEW050 24/23 Q1002 NOSIG

Tid: 04:45 (20:45 UTC)

Väderprognos

Denna rapport gjordes för 5 timmar och 33 minuter sedan, klockan 15:12 UTC
Prognos gäller från 17 kl. 18 UTC till 18 kl. 18 UTC
Vind 8 kt från nordost
Sikt 10 km eller mer
Spridda moln på en höjd av 5000 ft

TAF: ZGKL 171512Z 1718/1818 05004MPS 9999 SCT050 TX35/1807Z TN24/1722Z

Aktuella väderrapporter och prognoser från 4000 flygplatser (METAR- och TAF-rapporter).

De tillgängliga stationerna syns som gula och röda prickar på kartan.

För musen över prickarna för att se namnen på stationerna.

Klicka sedan för att få väderrapporter och prognoser.

För att ändra kartan: Klicka på de gröna knapparna med ett svart kors på för att zooma in; den gröna knappen med ett streck på för att zooma ut; eller på de gröna pilarna för angränsande kartor.


METAR-TAF: